Time;durP1;ratioP1;P1;durP2;ratioP2;P2;SDS_P1;SDS_P2;PMS_P1;PMS_P2;Temp;Humidity;BMP_temperature;BMP_pressure;BME280_temperature;BME280_humidity;BME280_pressure;Samples;Min_cycle;Max_cycle;Signal;HPM_P1;HPM_P2
2023/10/28 00:06:01;;;;;;;8.00;6.30;;;;;;;10.14;100.00;98439.21;125653;1301;636933;-62
2023/10/28 00:10:07;;;;;;;9.20;5.70;;;;;;;10.12;100.00;98452.21;127771;1292;128422;-61
2023/10/28 00:14:07;;;;;;;7.70;6.20;;;;;;;10.11;100.00;98449.42;127079;1284;116672;-66
2023/10/28 00:18:10;;;;;;;6.40;5.50;;;;;;;10.11;100.00;98450.88;122185;1290;5420170;-66
2023/10/28 00:22:12;;;;;;;10.60;6.00;;;;;;;10.09;100.00;98442.67;125755;1317;114967;-62
2023/10/28 00:26:12;;;;;;;8.40;6.40;;;;;;;10.07;100.00;98441.38;124867;1326;115350;-63
2023/10/28 00:30:13;;;;;;;9.30;6.20;;;;;;;10.05;100.00;98450.24;124733;1326;114851;-65
2023/10/28 00:38:40;;;;;;;9.00;6.30;;;;;;;10.00;100.00;98455.29;125827;1304;636008;-68
2023/10/28 00:46:36;;;;;;;;;;;;;;;;;;;;;
2023/10/28 00:50:40;;;;;;;8.30;6.80;;;;;;;9.94;100.00;98464.80;123597;1300;5426815;-66
2023/10/28 00:54:42;;;;;;;11.10;7.80;;;;;;;9.94;100.00;98469.13;126596;1300;114866;-66
2023/10/28 00:58:43;;;;;;;10.50;6.90;;;;;;;9.93;100.00;98469.89;125436;1321;114870;-68
2023/10/28 01:02:44;;;;;;;10.10;7.50;;;;;;;9.93;100.00;98466.87;124923;1311;129797;-68
2023/10/28 01:10:56;;;;;;;;;;;;;;;;;;;;;
2023/10/28 01:15:02;;;;;;;12.20;6.90;;;;;;;9.92;100.00;98473.54;128226;1275;129025;-63
2023/10/28 01:19:05;;;;;;;11.20;7.10;;;;;;;9.90;100.00;98469.24;127565;1286;115300;-62
2023/10/28 01:22:57;;;;;;;9.00;7.60;;;;;;;9.86;100.00;98474.30;123209;1290;5428297;-61
2023/10/28 01:34:54;;;;;;;;;;;;;;;;;;;;;
2023/10/28 01:43:23;;;;;;;12.30;8.20;;;;;;;9.77;100.00;98511.76;126668;1291;636779;-63
2023/10/28 01:47:26;;;;;;;13.50;8.80;;;;;;;9.76;100.00;98509.92;127409;1282;128945;-65
2023/10/28 01:51:18;;;;;;;;;;;;;;;;;;;;;
2023/10/28 01:55:22;;;;;;;13.80;10.10;;;;;;;9.77;100.00;98513.17;122664;1292;5431842;-68
2023/10/28 01:59:24;;;;;;;12.10;9.80;;;;;;;9.78;100.00;98514.66;124724;1326;114970;-64
2023/10/28 02:03:26;;;;;;;11.90;9.80;;;;;;;9.80;100.00;98517.40;123842;1328;115044;-62
2023/10/28 02:07:16;;;;;;;;;;;;;;;;;;;;;
2023/10/28 02:15:31;;;;;;;17.50;11.00;;;;;;;9.90;100.00;98521.31;125999;1303;637729;-62
2023/10/28 02:19:16;;;;;;;14.60;11.20;;;;;;;9.90;100.00;98524.36;128754;1289;128896;-61
2023/10/28 02:23:01;;;;;;;;;;;;;;;9.90;100.00;98527.58;129801;1260;114874;-62
2023/10/28 02:27:03;;;;;;;18.30;13.40;;;;;;;9.88;100.00;98524.30;129743;1261;115661;-64
2023/10/28 02:39:18;;;;;;;18.30;13.10;;;;;;;9.89;100.00;98521.41;127613;1302;129055;-63
2023/10/28 02:43:22;;;;;;;22.00;15.00;;;;;;;9.88;100.00;98526.96;126919;1284;115482;-64
2023/10/28 02:51:25;;;;;;;17.90;13.40;;;;;;;9.88;100.00;98537.48;124717;1328;114923;-65
2023/10/28 02:59:28;;;;;;;19.90;14.70;;;;;;;9.86;100.00;98546.92;126167;1295;635818;-68
2023/10/28 03:03:01;;;;;;;18.20;14.50;;;;;;;9.84;100.00;98544.62;129003;1270;128797;-67
2023/10/28 03:07:05;;;;;;;24.20;15.40;;;;;;;9.85;100.00;98542.48;129097;1272;114816;-65
2023/10/28 03:11:08;;;;;;;21.50;14.20;;;;;;;9.86;100.00;98541.55;128448;1294;114908;-63
2023/10/28 03:19:14;;;;;;;20.20;15.50;;;;;;;9.91;100.00;98540.85;126319;1296;114925;-63
2023/10/28 03:23:16;;;;;;;18.40;14.80;;;;;;;9.93;100.00;98546.59;125794;1318;114957;-61
2023/10/28 03:27:13;;;;;;;20.10;15.50;;;;;;;9.94;100.00;98545.40;124793;1319;129516;-61
2023/10/28 03:31:08;;;;;;;18.90;14.70;;;;;;;9.95;100.00;98539.85;124162;1331;116661;-60
2023/10/28 03:39:35;;;;;;;19.80;15.70;;;;;;;9.98;100.00;98538.37;126404;1297;636915;-62
2023/10/28 03:43:38;;;;;;;18.80;15.50;;;;;;;9.94;100.00;98544.34;128336;1291;128217;-63
2023/10/28 03:47:46;;;;;;;;;;;;;;;;;;;;;
2023/10/28 03:51:58;;;;;;;19.10;14.90;;;;;;;9.92;100.00;98544.35;122659;1304;5421074;-64
2023/10/28 03:55:50;;;;;;;22.80;16.30;;;;;;;9.93;100.00;98547.09;126034;1308;114954;-60
2023/10/28 03:59:50;;;;;;;22.30;16.20;;;;;;;9.94;100.00;98554.53;125183;1313;115041;-61
2023/10/28 04:03:51;;;;;;;28.60;19.50;;;;;;;9.96;100.00;98554.04;125421;1321;114952;-61
2023/10/28 04:07:53;;;;;;;31.90;18.40;;;;;;;9.97;100.00;98558.42;124853;1311;128836;-63
2023/10/28 04:11:45;;;;;;;;;;;;;;;;;;;;;
2023/10/28 04:20:10;;;;;;;57.00;42.70;;;;;;;10.01;100.00;98557.23;126095;1295;635986;-65
2023/10/28 04:24:13;;;;;;;26.80;19.20;;;;;;;10.01;100.00;98552.23;128484;1282;129028;-61
2023/10/28 04:32:24;;;;;;;17.80;13.60;;;;;;;9.98;100.00;98555.28;122963;1288;5442897;-61
2023/10/28 04:36:25;;;;;;;17.80;14.20;;;;;;;9.97;100.00;98555.38;125823;1311;114984;-64
2023/10/28 04:40:26;;;;;;;20.10;14.10;;;;;;;9.96;100.00;98557.02;125379;1324;115150;-60
2023/10/28 04:48:48;;;;;;;;;;;;;;;;;;;;;
2023/10/28 04:52:41;;;;;;;33.70;24.10;;;;;;;9.96;100.00;98570.09;128541;1293;127495;-62
2023/10/28 04:56:44;;;;;;;23.80;16.80;;;;;;;9.95;100.00;98571.73;127778;1283;115272;-62
2023/10/28 05:00:29;;;;;;;21.30;15.50;;;;;;;9.96;100.00;98573.32;123782;1284;5445984;-64
2023/10/28 05:04:27;;;;;;;14.00;12.00;;;;;;;9.96;100.00;98577.53;125581;1304;114928;-61
2023/10/28 05:08:20;;;;;;;;;;;;;;;;;;;;;
2023/10/28 05:12:22;;;;;;;12.10;10.30;;;;;;;9.99;100.00;98582.66;123572;1337;114999;-61
2023/10/28 05:15:36;;;;;;;14.90;11.20;;;;;;;10.01;100.00;98581.27;123107;1325;129764;-64
2023/10/28 05:23:59;;;;;;;15.10;11.70;;;;;;;10.08;100.00;98583.10;126357;1295;635939;-62
2023/10/28 05:28:02;;;;;;;14.10;11.20;;;;;;;10.09;100.00;98587.87;128185;1295;128952;-65
2023/10/28 05:32:05;;;;;;;18.00;12.20;;;;;;;10.11;100.00;98596.62;127324;1291;114850;-61
2023/10/28 05:36:08;;;;;;;14.00;8.70;;;;;;;10.11;100.00;98598.55;123048;1298;5453224;-65
2023/10/28 05:40:16;;;;;;;18.60;8.90;;;;;;;10.13;100.00;98598.24;126783;1294;115015;-62
2023/10/28 05:44:17;;;;;;;12.10;8.00;;;;;;;10.13;100.00;98605.16;125899;1293;116290;-60
2023/10/28 05:48:18;;;;;;;;;;;;;;;;;;;;;
2023/10/28 05:52:05;;;;;;;14.50;9.00;;;;;;;10.20;100.00;98616.10;124106;1324;129658;-62
2023/10/28 06:00:43;;;;;;;11.30;8.10;;;;;;;10.28;100.00;98614.79;125511;1299;638492;-61
2023/10/28 06:04:44;;;;;;;10.70;7.30;;;;;;;10.29;100.00;98625.59;128461;1294;128776;-61
2023/10/28 06:08:40;;;;;;;8.80;7.10;;;;;;;10.31;100.00;98627.61;127628;1299;115494;-61
2023/10/28 06:13:08;;;;;;;12.40;9.20;;;;;;;10.34;100.00;98629.66;123634;1280;5524123;-61
2023/10/28 06:16:39;;;;;;;;;;;;;;;;;;;;;
2023/10/28 06:20:24;;;;;;;16.20;9.40;;;;;;;10.43;100.00;98634.91;126520;1311;114843;-61
2023/10/28 06:24:42;;;;;;;27.90;12.60;;;;;;;10.48;100.00;98640.57;125704;1311;115045;-61
2023/10/28 06:28:45;;;;;;;28.80;12.70;;;;;;;10.53;100.00;98646.47;124819;1307;129768;-61
2023/10/28 06:32:39;;;;;;;34.90;14.00;;;;;;;10.61;100.00;98652.86;124974;1307;115294;-61
2023/10/28 06:36:27;;;;;;;34.30;13.50;;;;;;;10.66;100.00;98653.02;123533;1324;115097;-61
2023/10/28 06:39:59;;;;;;;23.70;11.20;;;;;;;10.67;100.00;98663.62;123455;1328;114952;-60
2023/10/28 06:43:41;;;;;;;14.10;7.80;;;;;;;10.68;100.00;98667.70;123651;1319;115123;-60
2023/10/28 06:47:25;;;;;;;10.30;7.50;;;;;;;10.68;100.00;98670.52;123800;1334;128670;-61
2023/10/28 06:51:12;;;;;;;10.60;7.10;;;;;;;10.67;100.00;98676.66;123567;1330;115550;-64
2023/10/28 06:55:12;;;;;;;8.20;6.80;;;;;;;10.66;100.00;98686.90;124420;1313;115003;-61
2023/10/28 06:58:31;;;;;;;13.10;8.20;;;;;;;10.67;100.00;98690.46;124663;1329;114921;-60
2023/10/28 07:02:11;;;;;;;;;;;;;;;;;;;;;
2023/10/28 07:05:38;;;;;;;14.70;7.40;;;;;;;10.70;100.00;98692.53;125717;1296;128476;-63
2023/10/28 07:09:33;;;;;;;7.50;6.50;;;;;;;10.74;100.00;98695.63;125605;1317;115576;-65
2023/10/28 07:13:26;;;;;;;;;;;;;;;;;;;;;
2023/10/28 07:17:03;;;;;;;;;;;;;;;;;;;;;
2023/10/28 07:20:50;;;;;;;9.10;6.20;;;;;;;11.26;100.00;98705.91;126066;1295;114961;-68
2023/10/28 07:24:59;;;;;;;;;;;;;;;;;;;;;
2023/10/28 07:28:55;;;;;;;;;;;;;;;;;;;;;
2023/10/28 07:32:36;;;;;;;;;;;;;;;;;;;;;
2023/10/28 07:36:39;;;;;;;5.30;4.80;;;;;;;11.84;100.00;98721.24;124704;1320;115138;-63
2023/10/28 07:40:31;;;;;;;;;;;;;;;;;;;;;
2023/10/28 07:44:31;;;;;;;;;;;;;;;;;;;;;
2023/10/28 07:48:40;;;;;;;;;;;;;;;;;;;;;
2023/10/28 07:52:33;;;;;;;6.20;4.90;;;;;;;12.70;100.00;98733.19;128293;1289;128939;-61
2023/10/28 07:56:32;;;;;;;4.80;4.20;;;;;;;12.86;100.00;98740.63;128327;1287;114921;-69
2023/10/28 08:00:22;;;;;;;6.60;4.00;;;;;;;13.01;100.00;98745.69;127158;1289;114827;-67
2023/10/28 08:04:27;;;;;;;5.20;4.50;;;;;;;13.12;100.00;98750.30;122872;1308;115032;-64
2023/10/28 08:08:14;;;;;;;;;;;;;;;;;;;;;
2023/10/28 08:12:05;;;;;;;9.00;5.20;;;;;;;13.27;100.00;98754.46;125164;1309;114974;-67
2023/10/28 08:15:49;;;;;;;;;;;;;;;;;;;;;
2023/10/28 08:19:26;;;;;;;;;;;;;;;;;;;;;
2023/10/28 08:23:52;;;;;;;11.40;5.90;;;;;;;13.10;99.51;98772.13;126182;1293;635916;-65
2023/10/28 08:27:47;;;;;;;;;;;;;;;;;;;;;
2023/10/28 08:31:30;;;;;;;;;;;;;;;;;;;;;
2023/10/28 08:35:28;;;;;;;4.80;3.50;;;;;;;13.49;99.82;98772.49;127346;1301;114884;-69
2023/10/28 08:39:14;;;;;;;3.70;3.30;;;;;;;13.69;99.57;98771.30;123738;1281;114999;-68
2023/10/28 08:43:06;;;;;;;;;;;;;;;;;;;;;
2023/10/28 08:47:06;;;;;;;;;;;;;;;;;;;;;
2023/10/28 08:50:51;;;;;;;;;;;;;;;;;;;;;
2023/10/28 08:54:52;;;;;;;;;;;;;;;;;;;;;
2023/10/28 08:58:16;;;;;;;6.70;3.10;;;;;;;14.30;96.68;98782.64;124150;1313;115035;-69
2023/10/28 09:02:10;;;;;;;;;;;;;;;;;;;;;
2023/10/28 09:06:06;;;;;;;7.60;2.90;;;;;;;14.48;96.68;98789.48;126110;1298;635950;-70
2023/10/28 09:13:59;;;;;;;7.00;2.80;;;;;;;14.64;96.35;98797.41;128532;1275;114947;-61
2023/10/28 09:18:01;;;;;;;;;;;;;;;;;;;;;
2023/10/28 09:22:02;;;;;;;5.60;3.00;;;;;;;14.77;94.63;98808.14;122626;1312;114961;-70
2023/10/28 09:26:04;;;;;;;7.20;2.70;;;;;;;14.80;94.56;98808.23;125427;1323;114886;-72
2023/10/28 09:30:00;;;;;;;;;;;;;;;;;;;;;
2023/10/28 09:38:06;;;;;;;;;;;;;;;;;;;;;
2023/10/28 09:42:07;;;;;;;;;;;;;;;;;;;;;
2023/10/28 09:45:27;;;;;;;7.00;3.10;;;;;;;15.21;93.37;98826.38;127214;1301;115476;-62
2023/10/28 09:49:22;;;;;;;;;;;;;;;;;;;;;
2023/10/28 09:53:01;;;;;;;7.00;3.50;;;;;;;15.34;92.81;98819.77;124208;1293;114879;-62
2023/10/28 09:56:52;;;;;;;4.20;2.70;;;;;;;15.43;92.78;98822.05;128263;1292;114944;-65
2023/10/28 10:03:53;;;;;;;6.20;2.80;;;;;;;15.73;92.58;98821.17;126437;1294;635700;-61
2023/10/28 10:06:58;;;;;;;3.00;2.40;;;;;;;15.88;92.47;98827.89;129115;1269;127855;-62
2023/10/28 10:11:09;;;;;;;2.10;1.80;;;;;;;16.00;92.02;98829.79;129011;1288;115310;-62
2023/10/28 10:14:25;;;;;;;3.50;2.20;;;;;;;16.11;91.13;98832.03;127530;1283;114823;-61
2023/10/28 10:18:23;;;;;;;;;;;;;;;;;;;;;
2023/10/28 10:22:00;;;;;;;4.10;1.90;;;;;;;16.13;90.16;98836.54;128698;1273;114821;-63
2023/10/28 10:25:44;;;;;;;2.90;1.90;;;;;;;16.10;90.30;98837.91;128654;1291;128483;-62
2023/10/28 10:29:25;;;;;;;8.80;2.10;;;;;;;16.03;89.14;98837.33;129130;1273;114947;-62
2023/10/28 10:33:17;;;;;;;;;;;;;;;;;;;;;
2023/10/28 10:37:12;;;;;;;;;;;;;;;;;;;;;
2023/10/28 10:41:05;;;;;;;3.50;2.20;;;;;;;15.96;88.82;98842.05;127830;1298;114872;-63
2023/10/28 10:45:26;;;;;;;5.10;2.30;;;;;;;16.05;88.82;98842.68;128062;1298;128727;-67
2023/10/28 10:49:34;;;;;;;3.80;2.10;;;;;;;16.09;88.37;98845.71;127342;1304;115367;-64
2023/10/28 10:53:38;;;;;;;6.60;2.30;;;;;;;16.10;88.51;98845.96;127933;1285;114888;-68
2023/10/28 11:01:23;;;;;;;;;;;;;;;;;;;;;
2023/10/28 11:04:49;;;;;;;;;;;;;;;;;;;;;
2023/10/28 11:08:34;;;;;;;;;;;;;;;;;;;;;
2023/10/28 11:12:33;;;;;;;2.30;1.80;;;;;;;16.21;87.16;98866.92;129131;1270;114840;-68
2023/10/28 11:16:08;;;;;;;3.10;1.80;;;;;;;16.20;86.81;98869.36;124479;1279;114815;-66
2023/10/28 11:20:09;;;;;;;6.40;2.20;;;;;;;16.21;86.78;98869.92;127422;1283;114898;-68
2023/10/28 11:23:52;;;;;;;2.90;1.80;;;;;;;16.26;86.33;98864.48;127425;1288;114937;-67
2023/10/28 11:28:01;;;;;;;2.40;1.60;;;;;;;16.24;85.78;98866.05;126609;1301;128885;-71
2023/10/28 11:31:36;;;;;;;3.50;1.40;;;;;;;16.22;85.45;98859.52;125430;1303;115397;-74
2023/10/28 11:35:30;;;;;;;1.70;1.20;;;;;;;16.33;85.42;98858.55;125348;1304;115015;-64
2023/10/28 11:39:49;;;;;;;2.50;1.90;;;;;;;16.44;85.63;98860.41;124197;1319;115289;-72
2023/10/28 11:43:09;;;;;;;4.90;1.80;;;;;;;16.52;85.02;98866.49;124223;1308;114960;-71
2023/10/28 11:47:03;;;;;;;;;;;;;;;;;;;;;
2023/10/28 11:55:06;;;;;;;;;;;;;;;;;;;;;
2023/10/28 11:59:00;;;;;;;2.70;1.20;;;;;;;16.35;83.45;98884.52;128096;1272;128398;-69
2023/10/28 12:02:54;;;;;;;1.80;1.10;;;;;;;16.24;82.99;98885.19;127761;1299;114910;-69
2023/10/28 12:06:27;;;;;;;2.00;1.50;;;;;;;16.07;82.54;98895.39;127519;1278;114778;-65
2023/10/28 12:10:17;;;;;;;3.50;2.20;;;;;;;15.88;83.01;98899.73;124193;1280;117509;-73
2023/10/28 12:14:13;;;;;;;4.30;2.10;;;;;;;15.71;83.28;98903.42;127654;1287;115215;-66
2023/10/28 12:17:48;;;;;;;;;;;;;;;;;;;;;
2023/10/28 12:21:38;;;;;;;;;;;;;;;;;;;;;
2023/10/28 12:25:20;;;;;;;;;;;;;;;;;;;;;
2023/10/28 12:29:07;;;;;;;;;;;;;;;;;;;;;
2023/10/28 12:32:50;;;;;;;8.80;3.80;;;;;;;14.89;84.92;98920.27;126421;1306;114826;-73
2023/10/28 12:36:52;;;;;;;5.00;3.20;;;;;;;14.76;85.32;98922.16;127104;1304;114830;-70
2023/10/28 12:40:40;;;;;;;4.00;2.50;;;;;;;14.61;85.86;98924.48;127731;1285;128897;-74
2023/10/28 12:44:32;;;;;;;4.10;1.80;;;;;;;14.48;86.28;98923.11;127685;1300;115528;-73
2023/10/28 12:48:35;;;;;;;2.50;1.70;;;;;;;14.38;86.91;98920.54;127489;1300;115500;-68
2023/10/28 12:52:40;;;;;;;4.40;2.30;;;;;;;14.35;87.70;98916.88;126628;1312;114967;-68
2023/10/28 12:56:31;;;;;;;6.80;3.00;;;;;;;14.36;88.04;98921.13;126132;1289;114925;-71
2023/10/28 13:00:31;;;;;;;8.70;4.00;;;;;;;14.33;88.18;98924.60;125918;1299;129060;-70
2023/10/28 13:04:29;;;;;;;;;;;;;;;;;;;;;
2023/10/28 13:08:23;;;;;;;;;;;;;;;;;;;;;
2023/10/28 13:12:23;;;;;;;;;;;;;;;;;;;;;
2023/10/28 13:16:38;;;;;;;;;;;;;;;;;;;;;
2023/10/28 13:20:33;;;;;;;;;;;;;;;;;;;;;
2023/10/28 13:24:38;;;;;;;5.30;3.20;;;;;;;13.89;90.12;98944.39;127306;1288;115359;-61
2023/10/28 13:28:37;;;;;;;5.20;2.70;;;;;;;13.96;90.14;98941.27;122695;1296;5249548;-63
2023/10/28 13:32:31;;;;;;;7.50;2.80;;;;;;;13.99;90.34;98946.92;125765;1299;116335;-62
2023/10/28 13:36:16;;;;;;;;;;;;;;;;;;;;;
2023/10/28 13:40:10;;;;;;;13.50;5.90;;;;;;;13.94;90.56;98966.73;124559;1313;116530;-72
2023/10/28 13:44:12;;;;;;;12.20;4.90;;;;;;;13.90;90.54;98968.33;124204;1315;129959;-61
2023/10/28 13:47:59;;;;;;;7.10;3.70;;;;;;;13.82;90.54;98980.50;123528;1315;114947;-63
2023/10/28 13:51:51;;;;;;;;;;;;;;;;;;;;;
2023/10/28 13:55:29;;;;;;;2.10;1.80;;;;;;;13.75;90.76;98976.56;123278;1340;115040;-63
2023/10/28 13:59:11;;;;;;;;;;;;;;;;;;;;;
2023/10/28 14:06:50;;;;;;;;;;;;;;;;;;;;;
2023/10/28 14:10:35;;;;;;;2.30;1.70;;;;;;;13.83;91.29;98977.16;124625;1326;115280;-64
2023/10/28 14:14:36;;;;;;;;;;;;;;;;;;;;;
2023/10/28 14:18:31;;;;;;;3.20;1.90;;;;;;;13.70;91.13;98984.20;125520;1315;114812;-62
2023/10/28 14:22:22;;;;;;;2.00;1.80;;;;;;;13.66;91.39;98984.88;124996;1302;129711;-63
2023/10/28 14:26:03;;;;;;;;;;;;;;;;;;;;;
2023/10/28 14:29:47;;;;;;;2.50;1.70;;;;;;;13.67;91.65;98997.35;124919;1311;114971;-63
2023/10/28 14:33:30;;;;;;;3.70;2.10;;;;;;;13.63;91.67;98993.52;125743;1318;114951;-64
2023/10/28 14:36:50;;;;;;;2.60;1.80;;;;;;;13.58;91.78;98995.41;125400;1296;114971;-64
2023/10/28 14:39:59;;;;;;;2.20;1.60;;;;;;;13.55;91.88;98993.65;125946;1296;129507;-63
2023/10/28 14:43:05;;;;;;;4.20;1.90;;;;;;;13.52;92.09;98996.96;126976;1289;115451;-63
2023/10/28 14:46:27;;;;;;;6.30;3.60;;;;;;;13.47;91.96;99000.20;127113;1290;115461;-63
2023/10/28 14:49:53;;;;;;;9.60;4.00;;;;;;;13.41;91.92;99003.11;126942;1301;115344;-62
2023/10/28 14:53:36;;;;;;;5.70;4.00;;;;;;;13.34;92.10;99008.99;127314;1289;114965;-63
2023/10/28 14:57:14;;;;;;;3.40;2.70;;;;;;;13.26;92.39;99010.52;127488;1301;128755;-63
2023/10/28 15:01:11;;;;;;;11.30;5.90;;;;;;;13.18;92.34;99016.88;127874;1282;114932;-63
2023/10/28 15:04:46;;;;;;;;;;;;;;;;;;;;;
2023/10/28 15:08:33;;;;;;;15.10;9.90;;;;;;;13.01;92.54;99024.71;128059;1287;114818;-65
2023/10/28 15:12:20;;;;;;;18.30;11.60;;;;;;;12.95;92.69;99021.48;127692;1285;116416;-62
2023/10/28 15:15:57;;;;;;;24.20;16.80;;;;;;;12.90;93.03;99025.09;127471;1286;128866;-63
2023/10/28 15:19:54;;;;;;;22.40;14.10;;;;;;;12.84;92.95;99024.98;127054;1305;116535;-63
2023/10/28 15:23:34;;;;;;;16.10;9.40;;;;;;;12.81;93.04;99022.73;126945;1295;115041;-64
2023/10/28 15:27:06;;;;;;;22.30;14.30;;;;;;;12.77;93.47;99033.58;125776;1303;114910;-68
2023/10/28 15:30:46;;;;;;;59.10;35.60;;;;;;;12.74;93.39;99046.08;125954;1302;114885;-67
2023/10/28 15:34:48;;;;;;;53.00;30.40;;;;;;;12.67;93.87;99042.79;126111;1295;129922;-64
2023/10/28 15:38:22;;;;;;;40.10;21.10;;;;;;;12.65;94.31;99050.13;126244;1305;115458;-70
2023/10/28 15:42:25;;;;;;;21.00;12.30;;;;;;;12.62;94.34;99047.14;126933;1289;115025;-65
2023/10/28 15:46:26;;;;;;;14.40;8.80;;;;;;;12.56;94.35;99037.76;125992;1312;114787;-64
2023/10/28 15:50:21;;;;;;;13.50;7.20;;;;;;;12.52;94.61;99039.49;126464;1307;114811;-62
2023/10/28 15:54:24;;;;;;;18.80;11.60;;;;;;;12.47;94.84;99043.65;126481;1292;128476;-70
2023/10/28 15:58:36;;;;;;;;;;;;;;;;;;;;;
2023/10/28 16:02:27;;;;;;;16.80;8.70;;;;;;;12.38;94.75;99049.71;126267;1311;115013;-63
2023/10/28 16:05:43;;;;;;;;;;;;;;;;;;;;;
2023/10/28 16:09:45;;;;;;;;;;;;;;;;;;;;;
2023/10/28 16:13:46;;;;;;;;;;;;;;;;;;;;;
2023/10/28 16:17:39;;;;;;;;;;;;;;;;;;;;;
2023/10/28 16:21:24;;;;;;;8.50;6.20;;;;;;;11.99;94.90;99051.78;125187;1324;114849;-63
2023/10/28 16:25:14;;;;;;;;;;;;;;;;;;;;;
2023/10/28 16:29:06;;;;;;;13.50;8.70;;;;;;;11.80;94.48;99067.52;126171;1293;636319;-63
2023/10/28 16:32:53;;;;;;;19.50;12.00;;;;;;;11.69;94.62;99078.51;128474;1273;128920;-67
2023/10/28 16:36:46;;;;;;;21.60;12.80;;;;;;;11.60;94.61;99085.57;128582;1273;114999;-63
2023/10/28 16:40:48;;;;;;;17.00;11.20;;;;;;;11.52;94.98;99086.14;128050;1283;114762;-62
2023/10/28 16:44:20;;;;;;;15.70;9.90;;;;;;;11.47;95.17;99088.67;122617;1293;114858;-63
2023/10/28 16:48:13;;;;;;;;;;;;;;;;;;;;;
2023/10/28 16:52:15;;;;;;;18.30;8.90;;;;;;;11.41;95.90;99091.98;125126;1318;114913;-65
2023/10/28 17:00:40;;;;;;;14.10;9.10;;;;;;;11.40;96.15;99102.04;126093;1304;636060;-65
2023/10/28 17:04:23;;;;;;;18.40;9.70;;;;;;;11.37;96.29;99110.32;127721;1286;127810;-64
2023/10/28 17:07:47;;;;;;;19.40;9.10;;;;;;;11.35;96.53;99114.36;127892;1291;115264;-63
2023/10/28 17:11:23;;;;;;;;;;;;;;;;;;;;;
2023/10/28 17:14:57;;;;;;;20.50;11.70;;;;;;;11.35;96.69;99124.02;123018;1289;115253;-69
2023/10/28 17:18:53;;;;;;;18.30;12.40;;;;;;;11.35;97.01;99124.02;127729;1282;114782;-69
2023/10/28 17:22:43;;;;;;;;;;;;;;;;;;;;;
2023/10/28 17:25:55;;;;;;;20.70;13.50;;;;;;;11.33;97.01;99128.06;127063;1305;129026;-69
2023/10/28 17:29:27;;;;;;;;;;;;;;;;;;;;;
2023/10/28 17:33:10;;;;;;;19.70;13.50;;;;;;;11.29;96.73;99126.62;127240;1305;114826;-72
2023/10/28 17:36:54;;;;;;;19.70;12.80;;;;;;;11.20;96.75;99129.72;127167;1289;114885;-71
2023/10/28 17:40:48;;;;;;;17.80;12.20;;;;;;;11.09;96.56;99141.40;126976;1301;114920;-69
2023/10/28 17:44:43;;;;;;;;;;;;;;;;;;;;;
2023/10/28 17:49:00;;;;;;;21.00;13.60;;;;;;;10.92;96.51;99150.45;126347;1292;636039;-72
2023/10/28 17:53:03;;;;;;;18.90;13.00;;;;;;;10.82;96.55;99156.64;128101;1284;128445;-72
2023/10/28 17:56:57;;;;;;;;;;;;;;;;;;;;;
2023/10/28 18:00:55;;;;;;;;;;;;;;;;;;;;;
2023/10/28 18:05:02;;;;;;;24.80;14.10;;;;;;;10.56;96.75;99173.21;125751;1301;114965;-62
2023/10/28 18:08:37;;;;;;;17.90;12.90;;;;;;;10.51;96.70;99175.88;125319;1313;114843;-65
2023/10/28 18:12:21;;;;;;;;;;;;;;;;;;;;;
2023/10/28 18:15:59;;;;;;;18.80;12.70;;;;;;;10.37;96.82;99176.98;125052;1303;130402;-62
2023/10/28 18:19:26;;;;;;;17.70;12.20;;;;;;;10.30;96.75;99179.44;124876;1307;115371;-65
2023/10/28 18:22:50;;;;;;;19.60;13.10;;;;;;;10.26;96.98;99177.56;124664;1310;114788;-63
2023/10/28 18:26:24;;;;;;;21.00;13.60;;;;;;;10.24;97.45;99175.53;124591;1316;115271;-64
2023/10/28 18:30:11;;;;;;;20.10;14.10;;;;;;;10.24;97.39;99178.73;124116;1316;114966;-62
2023/10/28 18:33:52;;;;;;;20.10;12.80;;;;;;;10.25;97.82;99173.87;125644;1316;127315;-63
2023/10/28 18:37:27;;;;;;;;;;;;;;;10.26;98.14;99173.41;125966;1301;114932;-66
2023/10/28 18:41:30;;;;;;;27.60;16.10;;;;;;;10.27;98.33;99173.89;126360;1296;114951;-62
2023/10/28 18:44:51;;;;;;;27.20;17.30;;;;;;;10.29;98.76;99172.86;126452;1292;114932;-63
2023/10/28 18:48:39;;;;;;;26.60;17.90;;;;;;;10.31;98.48;99172.23;126519;1311;114881;-64
2023/10/28 18:52:26;;;;;;;30.00;19.50;;;;;;;10.34;98.66;99172.34;126118;1311;129921;-64
2023/10/28 18:56:14;;;;;;;29.10;20.70;;;;;;;10.36;98.70;99176.36;126311;1298;115264;-61
2023/10/28 18:59:41;;;;;;;;;;;;;;;;;;;;;
2023/10/28 19:04:21;;;;;;;31.60;20.20;;;;;;;10.28;97.94;99182.56;125841;1304;114849;-64
2023/10/28 19:08:04;;;;;;;29.60;18.40;;;;;;;10.19;97.92;99198.67;126686;1308;114918;-65
2023/10/28 19:11:52;;;;;;;38.80;19.60;;;;;;;10.09;97.85;99205.44;126945;1305;129088;-63
2023/10/28 19:15:50;;;;;;;35.20;19.40;;;;;;;9.99;97.83;99202.65;127523;1302;115266;-65
2023/10/28 19:19:47;;;;;;;29.80;19.30;;;;;;;9.92;97.62;99201.54;126935;1288;114954;-64
2023/10/28 19:23:32;;;;;;;;;;;;;;;;;;;;;
2023/10/28 19:27:35;;;;;;;27.80;18.20;;;;;;;9.74;98.02;99214.42;125718;1299;114800;-64
2023/10/28 19:31:33;;;;;;;;;;;;;;;;;;;;;
2023/10/28 19:35:37;;;;;;;27.90;16.90;;;;;;;9.71;98.87;99222.08;123666;1322;115396;-65
2023/10/28 19:43:40;;;;;;;29.80;17.60;;;;;;;9.82;99.43;99227.13;126122;1301;635695;-64
2023/10/28 19:47:14;;;;;;;;;;;;;;;;;;;;;
2023/10/28 19:51:17;;;;;;;;;;;;;;;;;;;;;
2023/10/28 19:55:01;;;;;;;23.50;14.80;;;;;;;9.93;99.53;99235.86;125260;1301;5422093;-64
2023/10/28 19:59:09;;;;;;;;;;;;;;;;;;;;;
2023/10/28 20:03:25;;;;;;;29.60;16.30;;;;;;;10.04;99.98;99239.10;125358;1307;114944;-64
2023/10/28 20:07:08;;;;;;;27.30;14.10;;;;;;;10.09;100.00;99241.29;124789;1315;129816;-64
2023/10/28 20:10:46;;;;;;;;;;;;;;;;;;;;;
2023/10/28 20:15:13;;;;;;;21.00;11.90;;;;;;;10.20;100.00;99242.85;126420;1292;637019;-64
2023/10/28 20:19:12;;;;;;;19.00;11.50;;;;;;;10.24;99.99;99242.98;127679;1286;128594;-65
2023/10/28 20:26:55;;;;;;;17.10;10.90;;;;;;;10.33;100.00;99241.47;122211;1317;5440360;-63
2023/10/28 20:35:20;;;;;;;18.40;10.30;;;;;;;10.46;100.00;99242.45;126404;1297;636196;-65
2023/10/28 20:39:15;;;;;;;;;;;;;;;;;;;;;
2023/10/28 20:43:13;;;;;;;18.30;8.80;;;;;;;10.53;100.00;99245.08;127882;1280;114733;-65
2023/10/28 20:46:57;;;;;;;18.30;8.80;;;;;;;10.55;100.00;99243.13;122660;1299;5484146;-65
2023/10/28 20:50:58;;;;;;;14.30;8.60;;;;;;;10.61;100.00;99249.17;126247;1302;114952;-65
2023/10/28 20:54:59;;;;;;;13.30;8.40;;;;;;;10.65;100.00;99253.36;125650;1305;115050;-69
2023/10/28 20:58:53;;;;;;;;;;;;;;;;;;;;;
2023/10/28 21:03:08;;;;;;;;;;;;;;;;;;;;;
2023/10/28 21:07:24;;;;;;;19.80;8.80;;;;;;;10.69;100.00;99263.26;128447;1295;127827;-67
2023/10/28 21:14:59;;;;;;;13.90;7.80;;;;;;;10.72;100.00;99268.04;127453;1283;5447529;-64
2023/10/28 21:18:57;;;;;;;;;;;;;;;;;;;;;
2023/10/28 21:22:56;;;;;;;;;;;;;;;;;;;;;
2023/10/28 21:26:52;;;;;;;14.50;7.20;;;;;;;10.76;100.00;99264.05;125279;1314;115387;-63
2023/10/28 21:30:14;;;;;;;15.20;6.80;;;;;;;10.77;100.00;99261.84;124555;1329;114928;-64
2023/10/28 21:33:33;;;;;;;9.30;5.60;;;;;;;10.78;100.00;99264.25;124811;1307;114902;-70
2023/10/28 21:41:10;;;;;;;13.80;5.70;;;;;;;10.84;100.00;99262.66;126580;1305;636199;-63
2023/10/28 21:44:20;;;;;;;11.20;6.10;;;;;;;10.83;100.00;99273.43;129374;1272;128815;-66
2023/10/28 21:47:22;;;;;;;11.40;6.00;;;;;;;10.83;100.00;99272.91;129425;1282;115247;-66
2023/10/28 21:50:37;;;;;;;14.20;6.40;;;;;;;10.82;100.00;99273.85;129036;1288;114735;-62
2023/10/28 21:54:06;;;;;;;12.70;6.00;;;;;;;10.82;100.00;99272.25;125138;1266;5454968;-63
2023/10/28 21:57:50;;;;;;;10.30;5.60;;;;;;;10.81;100.00;99271.96;129337;1272;114741;-66
2023/10/28 22:01:09;;;;;;;16.70;5.80;;;;;;;10.80;100.00;99272.16;128549;1279;114865;-69
2023/10/28 22:04:36;;;;;;;12.40;6.80;;;;;;;10.79;100.00;99271.73;129171;1273;127846;-69
2023/10/28 22:08:02;;;;;;;12.50;5.90;;;;;;;10.76;100.00;99271.53;129048;1291;114825;-66
2023/10/28 22:12:06;;;;;;;10.90;5.10;;;;;;;10.72;100.00;99263.58;128776;1288;114907;-66
2023/10/28 22:15:58;;;;;;;9.50;5.40;;;;;;;10.70;100.00;99269.26;128643;1280;114975;-66
2023/10/28 22:19:53;;;;;;;13.20;6.10;;;;;;;10.68;100.00;99272.27;128330;1276;114934;-64
2023/10/28 22:23:29;;;;;;;12.00;6.30;;;;;;;10.66;100.00;99270.11;127875;1285;128242;-71
2023/10/28 22:27:33;;;;;;;12.50;5.50;;;;;;;10.63;100.00;99276.89;128579;1280;115285;-71